createdAt,value
2022-08-05T00:01:48.970Z,100961.47
2022-08-05T00:04:18.803Z,100966.94
2022-08-05T00:06:51.559Z,100960.94
2022-08-05T00:09:20.422Z,100961.25
2022-08-05T00:11:56.204Z,100972.44
2022-08-05T00:14:29.128Z,100980.72
2022-08-05T00:16:58.349Z,100974.25
2022-08-05T00:19:33.421Z,100981.94
2022-08-05T00:22:11.294Z,100990.31
2022-08-05T00:24:42.434Z,100994.28
2022-08-05T00:27:28.552Z,100983.13
2022-08-05T00:30:00.736Z,100977.47
2022-08-05T00:32:31.831Z,100988.47
2022-08-05T00:35:07.548Z,100989.13
2022-08-05T00:37:53.482Z,100993.63
2022-08-05T00:40:28.397Z,100992.84
2022-08-05T00:43:00.804Z,100989.00
2022-08-05T00:45:43.096Z,100993.47
2022-08-05T00:48:13.565Z,100989.41
2022-08-05T00:50:44.218Z,100979.84
2022-08-05T00:54:00.224Z,100966.50
2022-08-05T00:56:04.756Z,100980.88
2022-08-05T00:58:34.377Z,100989.75
2022-08-05T01:01:02.733Z,100993.84
2022-08-05T01:03:37.159Z,100994.25
2022-08-05T01:06:06.418Z,100995.19
2022-08-05T01:08:44.564Z,100983.25
2022-08-05T01:11:22.348Z,100977.34
2022-08-05T01:14:08.815Z,100979.66
2022-08-05T01:16:48.469Z,100971.69
2022-08-05T01:19:56.072Z,100970.59
2022-08-05T01:22:47.071Z,100978.09
2022-08-05T01:25:53.686Z,100984.75
2022-08-05T01:28:33.872Z,100978.13
2022-08-05T01:31:10.260Z,100984.06
2022-08-05T01:33:49.165Z,100970.69
2022-08-05T01:36:21.521Z,100962.84
2022-08-05T01:39:00.400Z,100972.91
2022-08-05T01:41:35.642Z,100977.66
2022-08-05T01:44:09.939Z,100979.03
2022-08-05T01:46:46.402Z,100986.94
2022-08-05T01:49:24.155Z,100998.91
2022-08-05T01:51:59.493Z,101003.22
2022-08-05T01:54:46.157Z,101002.19
2022-08-05T01:58:09.314Z,101024.97
2022-08-05T02:00:12.379Z,101040.03
2022-08-05T02:02:54.724Z,101051.78
2022-08-05T02:05:37.870Z,101080.94
2022-08-05T02:08:11.036Z,101102.16
2022-08-05T02:10:45.694Z,101111.13
2022-08-05T02:13:19.918Z,101115.19
2022-08-05T02:16:01.032Z,101106.25
2022-08-05T02:18:37.171Z,101107.78
2022-08-05T02:21:15.552Z,101100.13
2022-08-05T02:23:48.382Z,101107.97
2022-08-05T02:26:23.196Z,101105.03
2022-08-05T02:28:58.275Z,101093.06
2022-08-05T02:31:34.893Z,101101.16
2022-08-05T02:34:09.324Z,101078.84
2022-08-05T02:36:43.613Z,101072.47
2022-08-05T02:39:14.206Z,101074.66
2022-08-05T02:42:00.849Z,101077.25
2022-08-05T02:44:32.920Z,101085.41
2022-08-05T02:47:03.775Z,101088.94
2022-08-05T02:49:37.746Z,101071.66
2022-08-05T02:52:30.013Z,101063.84
2022-08-05T02:55:01.884Z,101056.63
2022-08-05T02:58:09.336Z,101053.63
2022-08-05T03:00:25.568Z,101042.38
2022-08-05T03:02:59.516Z,101036.06
2022-08-05T03:06:54.544Z,101018.44
2022-08-05T03:08:19.595Z,100994.25
2022-08-05T03:11:53.113Z,100970.63
2022-08-05T03:13:51.707Z,100955.56
2022-08-05T03:16:31.630Z,100938.78
2022-08-05T03:19:01.563Z,100930.28
2022-08-05T03:21:41.399Z,100947.09
2022-08-05T03:24:18.427Z,100950.91
2022-08-05T03:26:59.307Z,100950.56
2022-08-05T03:29:45.990Z,100958.66
2022-08-05T03:32:17.211Z,100937.88
2022-08-05T03:34:51.237Z,100945.81
2022-08-05T03:37:22.638Z,100972.13
2022-08-05T03:40:03.865Z,101009.88
2022-08-05T03:42:51.414Z,101034.16
2022-08-05T03:45:22.353Z,101041.94
2022-08-05T03:47:52.024Z,101043.06
2022-08-05T03:50:30.176Z,101044.22
2022-08-05T03:55:52.579Z,101055.66
2022-08-05T03:56:17.114Z,101061.34
2022-08-05T03:58:51.134Z,101057.66
2022-08-05T04:01:22.304Z,101062.25
2022-08-05T04:04:09.446Z,101071.13
2022-08-05T04:06:47.403Z,101076.16
2022-08-05T04:09:26.194Z,101075.00
2022-08-05T04:11:56.272Z,101071.59
2022-08-05T04:14:30.115Z,101066.63
2022-08-05T04:17:02.931Z,101066.50
2022-08-05T04:19:32.080Z,101066.69
2022-08-05T04:22:08.589Z,101044.88
2022-08-05T04:24:44.365Z,101039.53
2022-08-05T04:27:15.192Z,101026.06
2022-08-05T04:29:44.089Z,101011.31
2022-08-05T04:32:13.711Z,100999.34
2022-08-05T04:34:48.198Z,101023.00
2022-08-05T04:37:17.876Z,101029.81
2022-08-05T04:39:46.202Z,101033.25
2022-08-05T04:42:21.414Z,101032.00
2022-08-05T04:44:53.820Z,101031.69
2022-08-05T04:47:24.074Z,101030.94
2022-08-05T04:50:01.701Z,101017.78
2022-08-05T04:52:36.379Z,100997.97
2022-08-05T04:55:14.784Z,100994.50
2022-08-05T04:57:47.881Z,100991.56
2022-08-05T05:00:17.597Z,100997.44
2022-08-05T05:02:45.945Z,101010.00
2022-08-05T05:05:26.196Z,101018.81
2022-08-05T05:08:02.584Z,101028.44
2022-08-05T05:10:33.178Z,101036.03
2022-08-05T05:13:04.041Z,101031.69
2022-08-05T05:15:56.252Z,101040.56
2022-08-05T05:18:31.333Z,101037.00
2022-08-05T05:21:04.130Z,101039.13
2022-08-05T05:24:02.111Z,101039.56
2022-08-05T05:26:28.768Z,101031.50
2022-08-05T05:29:02.297Z,101032.19
2022-08-05T05:34:01.990Z,101059.00
2022-08-05T05:36:31.773Z,101055.63
2022-08-05T05:39:03.856Z,101046.78
2022-08-05T05:41:40.486Z,101053.97
2022-08-05T05:44:15.728Z,101067.00
2022-08-05T05:47:04.152Z,101067.25
2022-08-05T05:49:33.423Z,101067.44
2022-08-05T05:52:05.954Z,101067.84
2022-08-05T05:54:50.070Z,101079.00
2022-08-05T05:57:19.512Z,101081.78
2022-08-05T05:59:48.763Z,101092.97
2022-08-05T06:02:27.946Z,101099.81
2022-08-05T06:05:10.372Z,101094.19
2022-08-05T06:07:57.961Z,101092.41
2022-08-05T06:10:36.519Z,101098.00
2022-08-05T06:13:06.096Z,101102.50
2022-08-05T06:16:30.952Z,101099.91
2022-08-05T06:18:31.351Z,101103.50
2022-08-05T06:21:00.712Z,101106.31
2022-08-05T06:23:32.156Z,101094.00
2022-08-05T06:26:21.691Z,101081.53
2022-08-05T06:28:53.309Z,101085.44
2022-08-05T06:31:22.034Z,101096.56
2022-08-05T06:34:07.510Z,101109.94
2022-08-05T06:36:56.813Z,101117.81
2022-08-05T06:39:27.169Z,101125.03
2022-08-05T06:41:58.820Z,101132.44
2022-08-05T06:44:28.136Z,101135.81
2022-08-05T06:46:57.150Z,101127.66
2022-08-05T06:50:01.730Z,101131.28
2022-08-05T06:52:37.806Z,101121.44
2022-08-05T06:55:02.456Z,101126.34
2022-08-05T06:58:03.751Z,101131.44
2022-08-05T07:00:22.424Z,101132.31
2022-08-05T07:02:54.300Z,101133.31
2022-08-05T07:05:37.480Z,101129.22
2022-08-05T07:08:10.959Z,101148.69
2022-08-05T07:10:52.719Z,101161.44
2022-08-05T07:13:57.947Z,101175.63
2022-08-05T07:17:57.334Z,101172.19
2022-08-05T07:22:28.215Z,101171.56
2022-08-05T07:25:23.118Z,101168.19
2022-08-05T07:27:57.337Z,101172.22
2022-08-05T07:30:33.790Z,101177.19
2022-08-05T07:33:05.464Z,101168.38
2022-08-05T07:36:02.606Z,101170.88
2022-08-05T07:38:33.775Z,101180.63
2022-08-05T07:42:07.743Z,101179.53
2022-08-05T07:43:57.057Z,101196.50
2022-08-05T07:46:29.287Z,101202.09
2022-08-05T07:49:05.358Z,101205.22
2022-08-05T07:51:41.079Z,101208.53
2022-08-05T07:54:23.106Z,101207.63
2022-08-05T07:57:01.810Z,101223.03
2022-08-05T07:59:43.351Z,101239.56
2022-08-05T08:02:17.858Z,101238.91
2022-08-05T08:04:48.614Z,101243.97
2022-08-05T08:07:22.262Z,101240.13
2022-08-05T08:09:55.149Z,101233.69
2022-08-05T08:12:37.547Z,101244.31
2022-08-05T08:15:15.140Z,101250.22
2022-08-05T08:17:50.806Z,101251.06
2022-08-05T08:21:00.187Z,101249.91
2022-08-05T08:24:01.070Z,101249.13
2022-08-05T08:26:02.681Z,101251.03
2022-08-05T08:28:36.292Z,101251.81
2022-08-05T08:31:07.282Z,101257.66
2022-08-05T08:33:38.316Z,101261.53
2022-08-05T08:36:38.305Z,101265.63
2022-08-05T08:38:57.502Z,101273.72
2022-08-05T08:41:51.360Z,101288.69
2022-08-05T08:45:21.421Z,101282.91
2022-08-05T08:47:46.879Z,101285.06
2022-08-05T08:50:12.881Z,101293.81
2022-08-05T08:52:55.858Z,101291.19
2022-08-05T08:56:02.947Z,101288.13
2022-08-05T08:58:16.086Z,101286.03
2022-08-05T09:00:44.715Z,101282.69
2022-08-05T09:03:16.214Z,101285.41
2022-08-05T09:06:08.557Z,101287.47
2022-08-05T09:08:40.320Z,101297.28
2022-08-05T09:11:13.648Z,101299.97
2022-08-05T09:14:09.361Z,101297.88
2022-08-05T09:16:32.395Z,101304.34
2022-08-05T09:19:00.814Z,101295.63
2022-08-05T09:22:21.772Z,101313.28
2022-08-05T09:24:24.987Z,101314.94
2022-08-05T09:26:57.274Z,101322.66
2022-08-05T09:29:47.762Z,101327.81
2022-08-05T09:32:43.067Z,101331.56
2022-08-05T09:35:26.545Z,101340.84
2022-08-05T09:38:16.199Z,101350.78
2022-08-05T09:40:53.737Z,101354.00
2022-08-05T09:43:41.024Z,101355.53
2022-08-05T09:46:28.326Z,101352.53
2022-08-05T09:49:07.345Z,101357.66
2022-08-05T09:51:48.758Z,101360.47
2022-08-05T09:54:32.040Z,101376.28
2022-08-05T09:57:01.182Z,101376.09
2022-08-05T09:59:35.159Z,101381.94
2022-08-05T10:02:06.244Z,101381.00
2022-08-05T10:04:40.995Z,101387.06
2022-08-05T10:07:25.043Z,101380.00
2022-08-05T10:10:04.255Z,101388.53
2022-08-05T10:12:49.848Z,101387.41
2022-08-05T10:15:22.877Z,101403.47
2022-08-05T10:18:16.665Z,101402.81
2022-08-05T10:20:48.774Z,101398.88
2022-08-05T10:23:34.617Z,101404.56
2022-08-05T10:26:14.521Z,101402.09
2022-08-05T10:28:45.016Z,101412.53
2022-08-05T10:32:55.766Z,101412.25
2022-08-05T10:34:07.193Z,101417.22
2022-08-05T10:36:38.495Z,101420.47
2022-08-05T10:39:24.341Z,101418.75
2022-08-05T10:42:13.316Z,101422.25
2022-08-05T10:44:46.797Z,101416.22
2022-08-05T10:47:26.770Z,101428.28
2022-08-05T10:50:32.088Z,101425.13
2022-08-05T10:53:00.252Z,101420.69
2022-08-05T10:55:30.544Z,101426.31
2022-08-05T10:58:15.675Z,101429.50
2022-08-05T11:00:48.574Z,101433.50
2022-08-05T11:03:26.917Z,101428.38
2022-08-05T11:06:15.692Z,101424.31
2022-08-05T11:09:39.130Z,101422.03
2022-08-05T11:12:50.358Z,101423.13
2022-08-05T11:15:59.394Z,101428.78
2022-08-05T11:18:29.617Z,101431.38
2022-08-05T11:20:59.096Z,101432.66
2022-08-05T11:24:04.886Z,101429.16
2022-08-05T11:26:28.439Z,101437.72
2022-08-05T11:29:02.376Z,101439.19
2022-08-05T11:31:54.334Z,101442.41
2022-08-05T11:34:38.989Z,101442.53
2022-08-05T11:38:28.945Z,101451.19
2022-08-05T11:40:03.071Z,101446.06
2022-08-05T11:42:37.869Z,101442.69
2022-08-05T11:45:14.220Z,101443.53
2022-08-05T11:47:54.510Z,101453.75
2022-08-05T11:50:23.613Z,101445.81
2022-08-05T11:52:57.642Z,101444.13
2022-08-05T11:55:32.340Z,101448.31
2022-08-05T11:58:10.356Z,101457.34
2022-08-05T12:00:44.370Z,101444.78
2022-08-05T12:03:29.436Z,101451.84
2022-08-05T12:06:05.996Z,101457.16
2022-08-05T12:08:49.836Z,101453.72
2022-08-05T12:11:21.561Z,101450.84
2022-08-05T12:13:58.753Z,101455.03
2022-08-05T12:16:38.548Z,101452.47
2022-08-05T12:19:11.045Z,101462.81
2022-08-05T12:21:59.319Z,101465.78
2022-08-05T12:24:29.973Z,101457.44
2022-08-05T12:26:58.677Z,101452.56
2022-08-05T12:29:29.030Z,101459.41
2022-08-05T12:32:09.595Z,101466.19
2022-08-05T12:34:40.016Z,101457.13
2022-08-05T12:37:17.575Z,101458.38
2022-08-05T12:39:54.009Z,101469.66
2022-08-05T12:42:25.409Z,101472.31
2022-08-05T12:44:53.814Z,101475.53
2022-08-05T12:47:31.012Z,101474.59
2022-08-05T12:50:06.266Z,101495.69
2022-08-05T12:52:39.107Z,101494.41
2022-08-05T12:55:25.339Z,101497.75
2022-08-05T12:58:48.950Z,101501.63
2022-08-05T13:02:01.159Z,101505.34
2022-08-05T13:03:41.822Z,101521.63
2022-08-05T13:06:17.195Z,101509.00
2022-08-05T13:08:52.164Z,101516.28
2022-08-05T13:11:35.085Z,101525.78
2022-08-05T13:14:24.870Z,101532.50
2022-08-05T13:17:10.923Z,101530.28
2022-08-05T13:19:51.722Z,101526.19
2022-08-05T13:22:28.380Z,101523.31
2022-08-05T13:25:00.826Z,101531.69
2022-08-05T13:27:38.855Z,101539.59
2022-08-05T13:30:34.597Z,101542.91
2022-08-05T13:33:01.193Z,101545.53
2022-08-05T13:35:43.365Z,101550.03
2022-08-05T13:38:30.497Z,101555.47
2022-08-05T13:41:04.977Z,101555.03
2022-08-05T13:43:43.400Z,101548.16
2022-08-05T13:46:16.354Z,101560.06
2022-08-05T13:49:00.923Z,101562.31
2022-08-05T13:51:40.071Z,101550.91
2022-08-05T13:54:11.744Z,101561.00
2022-08-05T13:56:45.252Z,101560.81
2022-08-05T13:59:24.794Z,101556.31
2022-08-05T14:01:57.589Z,101558.78
2022-08-05T14:04:49.160Z,101559.31
2022-08-05T14:07:25.578Z,101556.78
2022-08-05T14:10:11.689Z,101558.22
2022-08-05T14:12:40.197Z,101567.47
2022-08-05T14:16:07.404Z,101563.88
2022-08-05T14:18:01.152Z,101567.63
2022-08-05T14:20:30.752Z,101557.94
2022-08-05T14:22:59.353Z,101558.47
2022-08-05T14:25:30.273Z,101557.59
2022-08-05T14:27:59.135Z,101565.44
2022-08-05T14:30:28.392Z,101564.31
2022-08-05T14:32:58.747Z,101567.94
2022-08-05T14:35:36.251Z,101579.66
2022-08-05T14:38:05.937Z,101575.41
2022-08-05T14:40:56.269Z,101568.47
2022-08-05T14:44:01.570Z,101579.19
2022-08-05T14:46:13.364Z,101578.53
2022-08-05T14:48:41.620Z,101578.38
2022-08-05T14:51:11.239Z,101574.84
2022-08-05T14:53:44.940Z,101574.31
2022-08-05T14:56:14.794Z,101576.38
2022-08-05T14:58:53.166Z,101580.03
2022-08-05T15:01:47.858Z,101569.66
2022-08-05T15:04:11.823Z,101568.66
2022-08-05T15:06:40.537Z,101579.25
2022-08-05T15:09:08.964Z,101576.72
2022-08-05T15:11:52.793Z,101573.06
2022-08-05T15:14:34.963Z,101573.88
2022-08-05T15:17:44.317Z,101587.13
2022-08-05T15:19:59.020Z,101589.50
2022-08-05T15:22:28.051Z,101595.28
2022-08-05T15:24:58.997Z,101593.81
2022-08-05T15:27:31.997Z,101584.44
2022-08-05T15:30:00.676Z,101595.47
2022-08-05T15:32:29.121Z,101597.31
2022-08-05T15:34:57.720Z,101604.66
2022-08-05T15:38:33.440Z,101609.53
2022-08-05T15:41:04.709Z,101607.31
2022-08-05T15:43:12.700Z,101602.91
2022-08-05T15:46:00.066Z,101611.38
2022-08-05T15:48:30.673Z,101614.66
2022-08-05T15:51:01.026Z,101606.16
2022-08-05T15:53:38.389Z,101614.94
2022-08-05T15:56:19.350Z,101612.00
2022-08-05T15:58:49.356Z,101612.25
2022-08-05T16:01:19.986Z,101614.94
2022-08-05T16:03:50.907Z,101621.22
2022-08-05T16:06:22.760Z,101628.66
2022-08-05T16:08:55.349Z,101617.88
2022-08-05T16:11:40.005Z,101624.66
2022-08-05T16:14:10.139Z,101625.75
2022-08-05T16:16:47.202Z,101625.66
2022-08-05T16:19:19.243Z,101621.69
2022-08-05T16:22:04.279Z,101628.31
2022-08-05T16:24:39.962Z,101621.34
2022-08-05T16:27:16.062Z,101620.38
2022-08-05T16:29:50.313Z,101619.66
2022-08-05T16:32:23.220Z,101633.88
2022-08-05T16:34:56.918Z,101629.38
2022-08-05T16:38:02.683Z,101631.59
2022-08-05T16:40:28.869Z,101628.34
2022-08-05T16:42:58.333Z,101643.44
2022-08-05T16:46:05.897Z,101639.41
2022-08-05T16:48:25.617Z,101658.81
2022-08-05T16:50:55.316Z,101654.69
2022-08-05T16:53:32.470Z,101655.78
2022-08-05T16:56:12.094Z,101660.00
2022-08-05T16:58:40.820Z,101659.13
2022-08-05T17:01:11.179Z,101669.47
2022-08-05T17:03:39.597Z,101673.66
2022-08-05T17:06:08.905Z,101661.69
2022-08-05T17:08:53.190Z,101674.91
2022-08-05T17:11:23.366Z,101683.31
2022-08-05T17:14:00.614Z,101680.44
2022-08-05T17:16:37.160Z,101683.00
2022-08-05T17:19:09.359Z,101676.91
2022-08-05T17:21:39.601Z,101676.28
2022-08-05T17:24:19.477Z,101683.91
2022-08-05T17:26:58.253Z,101680.13
2022-08-05T17:29:33.324Z,101681.16
2022-08-05T17:32:11.337Z,101690.84
2022-08-05T17:34:47.707Z,101691.44
2022-08-05T17:37:39.508Z,101694.50
2022-08-05T17:40:12.331Z,101703.75
2022-08-05T17:42:50.911Z,101704.59
2022-08-05T17:45:22.213Z,101710.88
2022-08-05T17:47:55.890Z,101712.84
2022-08-05T17:50:28.733Z,101715.78
2022-08-05T17:53:00.958Z,101715.25
2022-08-05T17:55:37.549Z,101718.69
2022-08-05T17:58:09.650Z,101722.34
2022-08-05T18:00:44.686Z,101721.78
2022-08-05T18:03:48.517Z,101733.88
2022-08-05T18:06:11.829Z,101739.88
2022-08-05T18:08:46.195Z,101746.81
2022-08-05T18:11:24.165Z,101741.47
2022-08-05T18:14:03.547Z,101745.78
2022-08-05T18:16:33.146Z,101745.47
2022-08-05T18:19:03.667Z,101757.53
2022-08-05T18:22:07.569Z,101764.56
2022-08-05T18:24:20.960Z,101770.75
2022-08-05T18:26:49.500Z,101770.44
2022-08-05T18:29:17.771Z,101771.81
2022-08-05T18:32:07.250Z,101775.78
2022-08-05T18:34:42.945Z,101775.50
2022-08-05T18:37:12.178Z,101778.88
2022-08-05T18:40:31.689Z,101781.13
2022-08-05T18:42:29.620Z,101785.94
2022-08-05T18:44:57.956Z,101796.00
2022-08-05T18:47:28.451Z,101789.00
2022-08-05T18:50:18.492Z,101798.00
2022-08-05T18:52:51.093Z,101801.03
2022-08-05T18:55:22.269Z,101799.34
2022-08-05T18:57:53.950Z,101808.09
2022-08-05T19:00:27.252Z,101804.41
2022-08-05T19:03:03.622Z,101808.94
2022-08-05T19:06:12.843Z,101815.44
2022-08-05T19:08:30.529Z,101815.50
2022-08-05T19:11:02.824Z,101823.41
2022-08-05T19:13:36.126Z,101824.22
2022-08-05T19:16:24.555Z,101826.94
2022-08-05T19:18:56.723Z,101832.97
2022-08-05T19:21:27.383Z,101844.25
2022-08-05T19:24:06.877Z,101839.13
2022-08-05T19:26:43.939Z,101850.44
2022-08-05T19:29:26.823Z,101855.72
2022-08-05T19:32:08.529Z,101852.91
2022-08-05T19:34:39.689Z,101856.81
2022-08-05T19:37:10.999Z,101852.34
2022-08-05T19:39:45.922Z,101857.63
2022-08-05T19:42:19.646Z,101864.81
2022-08-05T19:45:06.097Z,101866.00
2022-08-05T19:47:37.473Z,101888.03
2022-08-05T19:50:12.006Z,101892.09
2022-08-05T19:52:42.224Z,101889.41
2022-08-05T19:56:15.093Z,101907.28
2022-08-05T19:58:28.782Z,101916.44
2022-08-05T20:00:53.258Z,101909.66
2022-08-05T20:03:21.607Z,101918.78
2022-08-05T20:05:51.156Z,101919.00
2022-08-05T20:08:24.406Z,101919.06
2022-08-05T20:10:53.276Z,101920.25
2022-08-05T20:13:30.238Z,101925.47
2022-08-05T20:16:11.027Z,101927.66
2022-08-05T20:18:39.398Z,101928.72
2022-08-05T20:21:09.006Z,101942.38
2022-08-05T20:23:51.561Z,101944.13
2022-08-05T20:26:24.675Z,101944.03
2022-08-05T20:28:57.008Z,101941.38
2022-08-05T20:31:36.721Z,101949.56
2022-08-05T20:34:11.672Z,101949.69
2022-08-05T20:36:43.249Z,101960.28
2022-08-05T20:39:16.349Z,101961.78
2022-08-05T20:41:46.680Z,101958.72
2022-08-05T20:44:30.121Z,101966.72
2022-08-05T20:47:00.309Z,101968.09
2022-08-05T20:49:29.029Z,101976.13
2022-08-05T20:51:58.582Z,101974.25
2022-08-05T20:54:43.648Z,101973.72
2022-08-05T20:57:24.625Z,101976.91
2022-08-05T21:00:36.397Z,101979.72
2022-08-05T21:03:06.035Z,101981.28
2022-08-05T21:05:47.776Z,101981.47
2022-08-05T21:08:28.096Z,101992.38
2022-08-05T21:11:09.838Z,101993.69
2022-08-05T21:13:48.242Z,101987.88
2022-08-05T21:16:30.013Z,101998.59
2022-08-05T21:19:00.910Z,101999.19
2022-08-05T21:21:43.815Z,101997.97
2022-08-05T21:24:15.603Z,102001.59
2022-08-05T21:26:53.280Z,101996.09
2022-08-05T21:29:31.717Z,102006.25
2022-08-05T21:32:02.256Z,101997.31
2022-08-05T21:34:31.658Z,102003.63
2022-08-05T21:37:01.659Z,102009.94
2022-08-05T21:39:30.256Z,102020.81
2022-08-05T21:42:04.758Z,102014.28
2022-08-05T21:44:33.385Z,102011.53
2022-08-05T21:47:02.034Z,102018.50
2022-08-05T21:50:00.163Z,102027.66
2022-08-05T21:52:28.495Z,102027.25
2022-08-05T21:55:06.152Z,102027.53
2022-08-05T21:57:42.376Z,102030.19
2022-08-05T22:00:13.806Z,102030.22
2022-08-05T22:02:43.305Z,102035.81
2022-08-05T22:05:12.778Z,102028.59
2022-08-05T22:07:58.750Z,102037.34
2022-08-05T22:10:28.585Z,102031.72
2022-08-05T22:13:09.279Z,102038.78
2022-08-05T22:16:01.061Z,102032.78
2022-08-05T22:18:36.342Z,102046.97
2022-08-05T22:21:18.717Z,102043.00
2022-08-05T22:24:12.821Z,102044.75
2022-08-05T22:27:16.484Z,102045.47
2022-08-05T22:29:46.997Z,102048.28
2022-08-05T22:32:17.556Z,102055.81
2022-08-05T22:34:46.029Z,102046.63
2022-08-05T22:37:14.329Z,102055.72
2022-08-05T22:39:42.694Z,102054.88
2022-08-05T22:42:15.420Z,102056.38
2022-08-05T22:44:56.910Z,102060.19
2022-08-05T22:47:28.897Z,102059.75
2022-08-05T22:50:20.112Z,102068.06
2022-08-05T22:52:48.387Z,102076.34
2022-08-05T22:55:19.314Z,102074.59
2022-08-05T22:57:49.396Z,102079.44
2022-08-05T23:00:21.508Z,102079.56
2022-08-05T23:02:51.998Z,102076.31
2022-08-05T23:05:22.073Z,102088.16
2022-08-05T23:07:51.787Z,102086.69
2022-08-05T23:10:20.877Z,102093.50
2022-08-05T23:12:54.688Z,102099.50
2022-08-05T23:15:28.990Z,102100.69
2022-08-05T23:18:01.528Z,102107.75
2022-08-05T23:20:32.662Z,102104.91
2022-08-05T23:23:05.943Z,102110.19
2022-08-05T23:25:51.590Z,102105.41
2022-08-05T23:28:22.262Z,102107.97
2022-08-05T23:30:54.781Z,102110.34
2022-08-05T23:33:26.515Z,102110.03
2022-08-05T23:36:13.843Z,102111.19
2022-08-05T23:38:43.563Z,102114.38
2022-08-05T23:41:12.932Z,102115.50
2022-08-05T23:44:05.389Z,102118.47
2022-08-05T23:46:31.620Z,102111.41
2022-08-05T23:49:02.104Z,102122.78
2022-08-05T23:52:01.597Z,102115.78
2022-08-05T23:54:36.250Z,102120.72
2022-08-05T23:57:05.962Z,102125.00
